Terminal Aerodrome Forecast
Issued by NWS

Home | Current Version | Previous Version | Text Only | Print | Product List | Glossary On
Versions: 1 2 3 4 5 6 7 8 9 10 11 12 13
000
FTUS45 KRIW 300520
TAFCPR
TAF
KCPR 300520Z 3006/3106 25007KT P6SM SKC
     FM302000 VRB06KT P6SM FEW120=

USA.gov is the U.S. government's official web portal to all federal, state and local government web resources and services.